sensor_id;sensor_type;location;lat;lon;timestamp;temperature;humidity
64855;DHT22;51321;50.428;8.378;2022-12-24T00:00:07;10.30;99.90
64855;DHT22;51321;50.428;8.378;2022-12-24T00:02:31;10.20;99.90
64855;DHT22;51321;50.428;8.378;2022-12-24T00:04:54;10.20;99.90
64855;DHT22;51321;50.428;8.378;2022-12-24T00:07:16;10.20;99.90
64855;DHT22;51321;50.428;8.378;2022-12-24T00:09:39;10.20;99.90
64855;DHT22;51321;50.428;8.378;2022-12-24T00:12:01;10.20;99.90
64855;DHT22;51321;50.428;8.378;2022-12-24T00:14:24;10.20;99.90
64855;DHT22;51321;50.428;8.378;2022-12-24T00:16:46;10.20;99.90
64855;DHT22;51321;50.428;8.378;2022-12-24T00:19:08;10.20;99.90
64855;DHT22;51321;50.428;8.378;2022-12-24T00:21:32;10.30;99.90
64855;DHT22;51321;50.428;8.378;2022-12-24T00:23:54;10.20;99.90
64855;DHT22;51321;50.428;8.378;2022-12-24T00:26:16;10.20;99.90
64855;DHT22;51321;50.428;8.378;2022-12-24T00:28:39;10.20;99.90
64855;DHT22;51321;50.428;8.378;2022-12-24T00:31:06;10.20;99.90
64855;DHT22;51321;50.428;8.378;2022-12-24T00:33:29;10.20;99.90
64855;DHT22;51321;50.428;8.378;2022-12-24T00:35:51;10.20;99.90
64855;DHT22;51321;50.428;8.378;2022-12-24T00:38:15;10.10;99.90
64855;DHT22;51321;50.428;8.378;2022-12-24T00:40:37;10.00;99.90
64855;DHT22;51321;50.428;8.378;2022-12-24T00:42:59;10.10;99.90
64855;DHT22;51321;50.428;8.378;2022-12-24T00:45:22;10.10;99.90
64855;DHT22;51321;50.428;8.378;2022-12-24T00:47:44;10.20;99.90
64855;DHT22;51321;50.428;8.378;2022-12-24T00:50:07;10.10;99.90
64855;DHT22;51321;50.428;8.378;2022-12-24T00:52:30;10.10;99.90
64855;DHT22;51321;50.428;8.378;2022-12-24T00:54:53;10.00;99.90
64855;DHT22;51321;50.428;8.378;2022-12-24T00:57:15;10.00;99.90
64855;DHT22;51321;50.428;8.378;2022-12-24T00:59:37;9.90;99.90
64855;DHT22;51321;50.428;8.378;2022-12-24T01:02:00;9.90;99.90
64855;DHT22;51321;50.428;8.378;2022-12-24T01:04:23;9.80;99.90
64855;DHT22;51321;50.428;8.378;2022-12-24T01:07:03;9.80;99.90
64855;DHT22;51321;50.428;8.378;2022-12-24T01:09:25;9.80;99.90
64855;DHT22;51321;50.428;8.378;2022-12-24T01:11:49;9.80;99.90
64855;DHT22;51321;50.428;8.378;2022-12-24T01:14:11;9.80;99.90
64855;DHT22;51321;50.428;8.378;2022-12-24T01:16:33;9.70;99.90
64855;DHT22;51321;50.428;8.378;2022-12-24T01:18:55;9.80;99.90
64855;DHT22;51321;50.428;8.378;2022-12-24T01:21:17;9.70;99.90
64855;DHT22;51321;50.428;8.378;2022-12-24T01:23:40;9.80;99.90
64855;DHT22;51321;50.428;8.378;2022-12-24T01:26:03;9.70;99.90
64855;DHT22;51321;50.428;8.378;2022-12-24T01:28:27;9.70;99.90
64855;DHT22;51321;50.428;8.378;2022-12-24T01:30:50;9.70;99.90
64855;DHT22;51321;50.428;8.378;2022-12-24T01:33:12;9.60;99.90
64855;DHT22;51321;50.428;8.378;2022-12-24T01:35:38;9.40;99.90
64855;DHT22;51321;50.428;8.378;2022-12-24T01:38:00;9.20;99.90
64855;DHT22;51321;50.428;8.378;2022-12-24T01:40:25;9.20;99.90
64855;DHT22;51321;50.428;8.378;2022-12-24T01:43:14;9.10;99.90
64855;DHT22;51321;50.428;8.378;2022-12-24T01:45:50;9.00;99.90
64855;DHT22;51321;50.428;8.378;2022-12-24T01:48:17;9.00;99.90
64855;DHT22;51321;50.428;8.378;2022-12-24T01:50:40;8.90;99.90
64855;DHT22;51321;50.428;8.378;2022-12-24T01:53:03;8.80;99.90
64855;DHT22;51321;50.428;8.378;2022-12-24T01:55:27;8.90;99.90
64855;DHT22;51321;50.428;8.378;2022-12-24T01:57:53;8.80;99.90
64855;DHT22;51321;50.428;8.378;2022-12-24T02:00:16;8.80;99.90
64855;DHT22;51321;50.428;8.378;2022-12-24T02:02:43;8.90;99.90
64855;DHT22;51321;50.428;8.378;2022-12-24T02:05:08;8.90;99.90
64855;DHT22;51321;50.428;8.378;2022-12-24T02:07:35;9.00;99.90
64855;DHT22;51321;50.428;8.378;2022-12-24T02:09:59;9.10;99.90
64855;DHT22;51321;50.428;8.378;2022-12-24T02:12:21;9.00;99.90
64855;DHT22;51321;50.428;8.378;2022-12-24T02:14:44;9.00;99.90
64855;DHT22;51321;50.428;8.378;2022-12-24T02:17:12;9.00;99.90
64855;DHT22;51321;50.428;8.378;2022-12-24T02:20:10;9.00;99.90
64855;DHT22;51321;50.428;8.378;2022-12-24T02:25:35;9.10;99.90
64855;DHT22;51321;50.428;8.378;2022-12-24T02:28:12;9.20;99.90
64855;DHT22;51321;50.428;8.378;2022-12-24T02:30:42;9.20;99.90
64855;DHT22;51321;50.428;8.378;2022-12-24T02:33:25;9.30;99.90
64855;DHT22;51321;50.428;8.378;2022-12-24T02:35:52;9.40;99.90
64855;DHT22;51321;50.428;8.378;2022-12-24T02:38:21;9.40;99.90
64855;DHT22;51321;50.428;8.378;2022-12-24T02:40:49;9.40;99.90
64855;DHT22;51321;50.428;8.378;2022-12-24T02:43:17;9.40;99.90
64855;DHT22;51321;50.428;8.378;2022-12-24T02:45:45;9.40;99.90
64855;DHT22;51321;50.428;8.378;2022-12-24T02:48:09;9.40;99.90
64855;DHT22;51321;50.428;8.378;2022-12-24T02:50:33;9.50;99.90
64855;DHT22;51321;50.428;8.378;2022-12-24T02:52:56;9.50;99.90
64855;DHT22;51321;50.428;8.378;2022-12-24T02:55:20;9.50;99.90
64855;DHT22;51321;50.428;8.378;2022-12-24T02:57:58;9.50;99.90
64855;DHT22;51321;50.428;8.378;2022-12-24T03:00:23;9.60;99.90
64855;DHT22;51321;50.428;8.378;2022-12-24T03:03:03;9.70;99.90
64855;DHT22;51321;50.428;8.378;2022-12-24T03:05:35;9.60;99.90
64855;DHT22;51321;50.428;8.378;2022-12-24T03:08:04;9.50;99.90
64855;DHT22;51321;50.428;8.378;2022-12-24T03:10:33;9.50;99.90
64855;DHT22;51321;50.428;8.378;2022-12-24T03:13:03;9.40;99.90
64855;DHT22;51321;50.428;8.378;2022-12-24T03:15:27;9.40;99.90
64855;DHT22;51321;50.428;8.378;2022-12-24T03:17:54;9.30;99.90
64855;DHT22;51321;50.428;8.378;2022-12-24T03:20:21;9.30;99.90
64855;DHT22;51321;50.428;8.378;2022-12-24T03:22:44;9.30;99.90
64855;DHT22;51321;50.428;8.378;2022-12-24T03:25:06;9.30;99.90
64855;DHT22;51321;50.428;8.378;2022-12-24T03:27:30;9.30;99.90
64855;DHT22;51321;50.428;8.378;2022-12-24T03:29:53;9.30;99.90
64855;DHT22;51321;50.428;8.378;2022-12-24T03:32:23;9.30;99.90
64855;DHT22;51321;50.428;8.378;2022-12-24T03:34:47;9.30;99.90
64855;DHT22;51321;50.428;8.378;2022-12-24T03:37:09;9.40;99.90
64855;DHT22;51321;50.428;8.378;2022-12-24T03:39:31;9.30;99.90
64855;DHT22;51321;50.428;8.378;2022-12-24T03:41:53;9.40;99.90
64855;DHT22;51321;50.428;8.378;2022-12-24T03:44:17;9.40;99.90
64855;DHT22;51321;50.428;8.378;2022-12-24T03:46:39;9.30;99.90
64855;DHT22;51321;50.428;8.378;2022-12-24T03:49:01;9.30;99.90
64855;DHT22;51321;50.428;8.378;2022-12-24T03:51:25;9.40;99.90
64855;DHT22;51321;50.428;8.378;2022-12-24T03:53:48;9.50;99.90
64855;DHT22;51321;50.428;8.378;2022-12-24T03:56:13;9.40;99.90
64855;DHT22;51321;50.428;8.378;2022-12-24T03:58:35;9.40;99.90
64855;DHT22;51321;50.428;8.378;2022-12-24T04:00:58;9.50;99.90
64855;DHT22;51321;50.428;8.378;2022-12-24T04:03:20;9.50;99.90
64855;DHT22;51321;50.428;8.378;2022-12-24T04:05:42;9.50;99.90
64855;DHT22;51321;50.428;8.378;2022-12-24T04:08:06;9.50;99.90
64855;DHT22;51321;50.428;8.378;2022-12-24T04:10:28;9.50;99.90
64855;DHT22;51321;50.428;8.378;2022-12-24T04:12:50;9.60;99.90
64855;DHT22;51321;50.428;8.378;2022-12-24T04:15:13;9.60;99.90
64855;DHT22;51321;50.428;8.378;2022-12-24T04:17:35;9.70;99.90
64855;DHT22;51321;50.428;8.378;2022-12-24T04:19:57;9.50;99.90
64855;DHT22;51321;50.428;8.378;2022-12-24T04:22:19;9.50;99.90
64855;DHT22;51321;50.428;8.378;2022-12-24T04:24:43;9.50;99.90
64855;DHT22;51321;50.428;8.378;2022-12-24T04:27:05;9.40;99.90
64855;DHT22;51321;50.428;8.378;2022-12-24T04:29:27;9.50;99.90
64855;DHT22;51321;50.428;8.378;2022-12-24T04:31:49;9.60;99.90
64855;DHT22;51321;50.428;8.378;2022-12-24T04:34:11;9.50;99.90
64855;DHT22;51321;50.428;8.378;2022-12-24T04:36:34;9.50;99.90
64855;DHT22;51321;50.428;8.378;2022-12-24T04:38:56;9.50;99.90
64855;DHT22;51321;50.428;8.378;2022-12-24T04:41:22;9.50;99.90
64855;DHT22;51321;50.428;8.378;2022-12-24T04:43:45;9.50;99.90
64855;DHT22;51321;50.428;8.378;2022-12-24T04:46:09;9.60;99.90
64855;DHT22;51321;50.428;8.378;2022-12-24T04:48:32;9.60;99.90
64855;DHT22;51321;50.428;8.378;2022-12-24T04:50:54;9.70;99.90
64855;DHT22;51321;50.428;8.378;2022-12-24T04:53:16;9.70;99.90
64855;DHT22;51321;50.428;8.378;2022-12-24T04:55:38;9.70;99.90
64855;DHT22;51321;50.428;8.378;2022-12-24T04:58:05;9.80;99.90
64855;DHT22;51321;50.428;8.378;2022-12-24T05:00:27;9.70;99.90
64855;DHT22;51321;50.428;8.378;2022-12-24T05:02:49;9.70;99.90
64855;DHT22;51321;50.428;8.378;2022-12-24T05:05:12;9.70;99.90
64855;DHT22;51321;50.428;8.378;2022-12-24T05:07:34;9.70;99.90
64855;DHT22;51321;50.428;8.378;2022-12-24T05:09:56;9.70;99.90
64855;DHT22;51321;50.428;8.378;2022-12-24T05:12:19;9.60;99.90
64855;DHT22;51321;50.428;8.378;2022-12-24T05:14:42;9.60;99.90
64855;DHT22;51321;50.428;8.378;2022-12-24T05:17:04;9.70;99.90
64855;DHT22;51321;50.428;8.378;2022-12-24T05:19:26;9.70;99.90
64855;DHT22;51321;50.428;8.378;2022-12-24T05:21:48;9.70;99.90
64855;DHT22;51321;50.428;8.378;2022-12-24T05:24:31;9.70;99.90
64855;DHT22;51321;50.428;8.378;2022-12-24T05:27:10;9.70;99.90
64855;DHT22;51321;50.428;8.378;2022-12-24T05:29:32;9.70;99.90
64855;DHT22;51321;50.428;8.378;2022-12-24T05:31:56;9.70;99.90
64855;DHT22;51321;50.428;8.378;2022-12-24T05:34:18;9.70;99.90
64855;DHT22;51321;50.428;8.378;2022-12-24T05:36:41;9.60;99.90
64855;DHT22;51321;50.428;8.378;2022-12-24T05:39:03;9.70;99.90
64855;DHT22;51321;50.428;8.378;2022-12-24T05:41:25;9.60;99.90
64855;DHT22;51321;50.428;8.378;2022-12-24T05:43:47;9.60;99.90
64855;DHT22;51321;50.428;8.378;2022-12-24T05:46:13;9.50;99.90
64855;DHT22;51321;50.428;8.378;2022-12-24T05:48:36;9.40;99.90
64855;DHT22;51321;50.428;8.378;2022-12-24T05:51:02;9.30;99.90
64855;DHT22;51321;50.428;8.378;2022-12-24T05:53:24;9.30;99.90
64855;DHT22;51321;50.428;8.378;2022-12-24T05:55:46;9.30;99.90
64855;DHT22;51321;50.428;8.378;2022-12-24T05:58:08;9.20;99.90
64855;DHT22;51321;50.428;8.378;2022-12-24T06:00:30;9.20;99.90
64855;DHT22;51321;50.428;8.378;2022-12-24T06:02:52;9.10;99.90
64855;DHT22;51321;50.428;8.378;2022-12-24T06:05:16;9.20;99.90
64855;DHT22;51321;50.428;8.378;2022-12-24T06:07:38;9.30;99.90
64855;DHT22;51321;50.428;8.378;2022-12-24T06:10:01;9.30;99.90
64855;DHT22;51321;50.428;8.378;2022-12-24T06:12:23;9.30;99.90
64855;DHT22;51321;50.428;8.378;2022-12-24T06:14:54;9.40;99.90
64855;DHT22;51321;50.428;8.378;2022-12-24T06:17:16;9.40;99.90
64855;DHT22;51321;50.428;8.378;2022-12-24T06:19:42;9.40;99.90
64855;DHT22;51321;50.428;8.378;2022-12-24T06:22:05;9.50;99.90
64855;DHT22;51321;50.428;8.378;2022-12-24T06:24:28;9.50;99.90
64855;DHT22;51321;50.428;8.378;2022-12-24T06:26:50;9.50;99.90
64855;DHT22;51321;50.428;8.378;2022-12-24T06:29:12;9.60;99.90
64855;DHT22;51321;50.428;8.378;2022-12-24T06:31:34;9.60;99.90
64855;DHT22;51321;50.428;8.378;2022-12-24T06:33:56;9.60;99.90
64855;DHT22;51321;50.428;8.378;2022-12-24T06:36:21;9.60;99.90
64855;DHT22;51321;50.428;8.378;2022-12-24T06:38:45;9.60;99.90
64855;DHT22;51321;50.428;8.378;2022-12-24T06:41:08;9.60;99.90
64855;DHT22;51321;50.428;8.378;2022-12-24T06:43:30;9.60;99.90
64855;DHT22;51321;50.428;8.378;2022-12-24T06:45:54;9.60;99.90
64855;DHT22;51321;50.428;8.378;2022-12-24T06:48:16;9.60;99.90
64855;DHT22;51321;50.428;8.378;2022-12-24T06:50:38;9.70;99.90
64855;DHT22;51321;50.428;8.378;2022-12-24T06:53:00;9.70;99.90
64855;DHT22;51321;50.428;8.378;2022-12-24T06:55:24;9.60;99.90
64855;DHT22;51321;50.428;8.378;2022-12-24T06:57:47;9.60;99.90
64855;DHT22;51321;50.428;8.378;2022-12-24T07:00:11;9.50;99.90
64855;DHT22;51321;50.428;8.378;2022-12-24T07:02:33;9.50;99.90
64855;DHT22;51321;50.428;8.378;2022-12-24T07:04:56;9.50;99.90
64855;DHT22;51321;50.428;8.378;2022-12-24T07:07:18;9.50;99.90
64855;DHT22;51321;50.428;8.378;2022-12-24T07:09:40;9.40;99.90
64855;DHT22;51321;50.428;8.378;2022-12-24T07:12:04;9.40;99.90
64855;DHT22;51321;50.428;8.378;2022-12-24T07:14:27;9.40;99.90
64855;DHT22;51321;50.428;8.378;2022-12-24T07:16:49;9.30;99.90
64855;DHT22;51321;50.428;8.378;2022-12-24T07:19:13;9.30;99.90
64855;DHT22;51321;50.428;8.378;2022-12-24T07:21:35;9.30;99.90
64855;DHT22;51321;50.428;8.378;2022-12-24T07:23:57;9.30;99.90
64855;DHT22;51321;50.428;8.378;2022-12-24T07:26:20;9.30;99.90
64855;DHT22;51321;50.428;8.378;2022-12-24T07:28:43;9.30;99.90
64855;DHT22;51321;50.428;8.378;2022-12-24T07:31:07;9.20;99.90
64855;DHT22;51321;50.428;8.378;2022-12-24T07:33:29;9.20;99.90
64855;DHT22;51321;50.428;8.378;2022-12-24T07:35:56;9.20;99.90
64855;DHT22;51321;50.428;8.378;2022-12-24T07:38:18;9.20;99.90
64855;DHT22;51321;50.428;8.378;2022-12-24T07:40:40;9.20;99.90
64855;DHT22;51321;50.428;8.378;2022-12-24T07:43:03;9.20;99.90
64855;DHT22;51321;50.428;8.378;2022-12-24T07:45:26;9.20;99.90
64855;DHT22;51321;50.428;8.378;2022-12-24T07:47:48;9.20;99.90
64855;DHT22;51321;50.428;8.378;2022-12-24T07:50:11;9.20;99.90
64855;DHT22;51321;50.428;8.378;2022-12-24T07:52:33;9.20;99.90
64855;DHT22;51321;50.428;8.378;2022-12-24T07:54:55;9.20;99.90
64855;DHT22;51321;50.428;8.378;2022-12-24T07:57:17;9.20;99.90
64855;DHT22;51321;50.428;8.378;2022-12-24T07:59:39;9.20;99.90
64855;DHT22;51321;50.428;8.378;2022-12-24T08:02:03;9.20;99.90
64855;DHT22;51321;50.428;8.378;2022-12-24T08:04:25;9.30;99.90
64855;DHT22;51321;50.428;8.378;2022-12-24T08:06:48;9.20;99.90
64855;DHT22;51321;50.428;8.378;2022-12-24T08:09:10;9.20;99.90
64855;DHT22;51321;50.428;8.378;2022-12-24T08:11:34;9.30;99.90
64855;DHT22;51321;50.428;8.378;2022-12-24T08:13:56;9.30;99.90
64855;DHT22;51321;50.428;8.378;2022-12-24T08:16:18;9.40;99.90
64855;DHT22;51321;50.428;8.378;2022-12-24T08:18:42;9.50;99.90
64855;DHT22;51321;50.428;8.378;2022-12-24T08:21:06;9.60;99.90
64855;DHT22;51321;50.428;8.378;2022-12-24T08:23:29;9.70;99.90
64855;DHT22;51321;50.428;8.378;2022-12-24T08:25:51;9.70;99.90
64855;DHT22;51321;50.428;8.378;2022-12-24T08:28:15;9.80;99.90
64855;DHT22;51321;50.428;8.378;2022-12-24T08:30:38;9.90;99.90
64855;DHT22;51321;50.428;8.378;2022-12-24T08:33:00;10.00;99.90
64855;DHT22;51321;50.428;8.378;2022-12-24T08:35:24;10.10;99.90
64855;DHT22;51321;50.428;8.378;2022-12-24T08:37:46;10.10;99.90
64855;DHT22;51321;50.428;8.378;2022-12-24T08:40:09;10.20;99.90
64855;DHT22;51321;50.428;8.378;2022-12-24T08:42:31;10.20;99.90
64855;DHT22;51321;50.428;8.378;2022-12-24T08:44:54;10.20;99.90
64855;DHT22;51321;50.428;8.378;2022-12-24T08:47:16;10.20;99.90
64855;DHT22;51321;50.428;8.378;2022-12-24T08:49:38;10.30;99.90
64855;DHT22;51321;50.428;8.378;2022-12-24T08:52:03;10.30;99.90
64855;DHT22;51321;50.428;8.378;2022-12-24T08:54:25;10.40;99.90
64855;DHT22;51321;50.428;8.378;2022-12-24T08:56:47;10.40;99.90
64855;DHT22;51321;50.428;8.378;2022-12-24T08:59:10;10.50;99.90
64855;DHT22;51321;50.428;8.378;2022-12-24T09:01:32;10.60;99.90
64855;DHT22;51321;50.428;8.378;2022-12-24T09:03:54;10.70;99.90
64855;DHT22;51321;50.428;8.378;2022-12-24T09:06:17;10.80;99.90
64855;DHT22;51321;50.428;8.378;2022-12-24T09:08:40;10.90;99.90
64855;DHT22;51321;50.428;8.378;2022-12-24T09:11:04;10.90;99.90
64855;DHT22;51321;50.428;8.378;2022-12-24T09:13:27;10.90;99.90
64855;DHT22;51321;50.428;8.378;2022-12-24T09:15:53;10.90;99.90
64855;DHT22;51321;50.428;8.378;2022-12-24T09:18:15;11.00;99.90
64855;DHT22;51321;50.428;8.378;2022-12-24T09:20:38;11.00;99.90
64855;DHT22;51321;50.428;8.378;2022-12-24T09:23:00;11.00;99.90
64855;DHT22;51321;50.428;8.378;2022-12-24T09:25:23;11.30;99.90
64855;DHT22;51321;50.428;8.378;2022-12-24T09:27:46;11.50;99.90
64855;DHT22;51321;50.428;8.378;2022-12-24T09:30:09;11.70;99.90
64855;DHT22;51321;50.428;8.378;2022-12-24T09:32:32;12.00;99.90
64855;DHT22;51321;50.428;8.378;2022-12-24T09:34:56;12.20;99.90
64855;DHT22;51321;50.428;8.378;2022-12-24T09:37:18;12.20;99.90
64855;DHT22;51321;50.428;8.378;2022-12-24T09:39:40;12.10;99.90
64855;DHT22;51321;50.428;8.378;2022-12-24T09:42:13;12.10;99.90
64855;DHT22;51321;50.428;8.378;2022-12-24T09:44:42;12.10;99.90
64855;DHT22;51321;50.428;8.378;2022-12-24T09:47:13;12.20;99.90
64855;DHT22;51321;50.428;8.378;2022-12-24T09:49:41;12.30;99.90
64855;DHT22;51321;50.428;8.378;2022-12-24T09:52:07;12.40;99.90
64855;DHT22;51321;50.428;8.378;2022-12-24T09:54:31;12.50;99.90
64855;DHT22;51321;50.428;8.378;2022-12-24T09:56:56;12.70;99.90
64855;DHT22;51321;50.428;8.378;2022-12-24T09:59:23;12.70;99.90
64855;DHT22;51321;50.428;8.378;2022-12-24T10:01:47;12.80;99.90
64855;DHT22;51321;50.428;8.378;2022-12-24T10:04:12;12.70;99.90
64855;DHT22;51321;50.428;8.378;2022-12-24T10:06:39;12.70;99.90
64855;DHT22;51321;50.428;8.378;2022-12-24T10:09:11;12.70;99.90
64855;DHT22;51321;50.428;8.378;2022-12-24T10:11:45;12.80;99.90
64855;DHT22;51321;50.428;8.378;2022-12-24T10:14:23;12.90;99.90
64855;DHT22;51321;50.428;8.378;2022-12-24T10:16:53;13.00;99.90
64855;DHT22;51321;50.428;8.378;2022-12-24T10:19:22;13.00;99.90
64855;DHT22;51321;50.428;8.378;2022-12-24T10:21:57;13.00;99.90
64855;DHT22;51321;50.428;8.378;2022-12-24T10:24:26;13.00;99.90
64855;DHT22;51321;50.428;8.378;2022-12-24T10:26:52;13.00;99.90
64855;DHT22;51321;50.428;8.378;2022-12-24T10:29:18;12.80;99.90
64855;DHT22;51321;50.428;8.378;2022-12-24T10:31:51;12.70;99.90
64855;DHT22;51321;50.428;8.378;2022-12-24T10:34:20;12.60;99.90
64855;DHT22;51321;50.428;8.378;2022-12-24T10:36:43;12.50;99.90
64855;DHT22;51321;50.428;8.378;2022-12-24T10:39:08;12.30;99.90
64855;DHT22;51321;50.428;8.378;2022-12-24T10:41:37;12.30;99.90
64855;DHT22;51321;50.428;8.378;2022-12-24T10:43:59;12.30;99.90
64855;DHT22;51321;50.428;8.378;2022-12-24T10:46:22;12.30;99.90
64855;DHT22;51321;50.428;8.378;2022-12-24T10:48:52;12.30;99.90
64855;DHT22;51321;50.428;8.378;2022-12-24T10:51:20;12.30;99.90
64855;DHT22;51321;50.428;8.378;2022-12-24T10:53:45;12.40;99.90
64855;DHT22;51321;50.428;8.378;2022-12-24T10:56:11;12.60;99.90
64855;DHT22;51321;50.428;8.378;2022-12-24T10:58:36;12.60;99.90
64855;DHT22;51321;50.428;8.378;2022-12-24T11:01:05;12.70;99.90
64855;DHT22;51321;50.428;8.378;2022-12-24T11:03:28;12.90;99.90
64855;DHT22;51321;50.428;8.378;2022-12-24T11:06:08;13.20;99.90
64855;DHT22;51321;50.428;8.378;2022-12-24T11:08:34;13.20;99.90
64855;DHT22;51321;50.428;8.378;2022-12-24T11:10:58;13.40;99.90
64855;DHT22;51321;50.428;8.378;2022-12-24T11:13:24;13.50;99.90
64855;DHT22;51321;50.428;8.378;2022-12-24T11:15:49;13.50;99.90
64855;DHT22;51321;50.428;8.378;2022-12-24T11:18:14;13.40;99.90
64855;DHT22;51321;50.428;8.378;2022-12-24T11:20:37;13.20;99.90
64855;DHT22;51321;50.428;8.378;2022-12-24T11:23:01;13.00;99.90
64855;DHT22;51321;50.428;8.378;2022-12-24T11:25:28;12.90;99.90
64855;DHT22;51321;50.428;8.378;2022-12-24T11:27:51;12.70;99.90
64855;DHT22;51321;50.428;8.378;2022-12-24T11:30:23;12.60;99.90
64855;DHT22;51321;50.428;8.378;2022-12-24T11:32:46;12.60;99.90
64855;DHT22;51321;50.428;8.378;2022-12-24T11:35:15;12.60;99.90
64855;DHT22;51321;50.428;8.378;2022-12-24T11:37:37;12.50;99.90
64855;DHT22;51321;50.428;8.378;2022-12-24T11:40:01;12.50;99.90
64855;DHT22;51321;50.428;8.378;2022-12-24T11:42:28;12.50;99.90
64855;DHT22;51321;50.428;8.378;2022-12-24T11:44:54;12.40;99.90
64855;DHT22;51321;50.428;8.378;2022-12-24T11:47:18;12.30;99.90
64855;DHT22;51321;50.428;8.378;2022-12-24T11:49:52;12.20;99.90
64855;DHT22;51321;50.428;8.378;2022-12-24T11:52:23;12.10;99.90
64855;DHT22;51321;50.428;8.378;2022-12-24T11:54:55;12.00;99.90
64855;DHT22;51321;50.428;8.378;2022-12-24T11:57:25;12.00;99.90
64855;DHT22;51321;50.428;8.378;2022-12-24T11:59:49;12.00;99.90
64855;DHT22;51321;50.428;8.378;2022-12-24T12:02:16;12.00;99.90
64855;DHT22;51321;50.428;8.378;2022-12-24T12:04:41;12.00;99.90
64855;DHT22;51321;50.428;8.378;2022-12-24T12:07:10;12.10;99.90
64855;DHT22;51321;50.428;8.378;2022-12-24T12:09:38;12.10;99.90
64855;DHT22;51321;50.428;8.378;2022-12-24T12:12:05;12.10;99.90
64855;DHT22;51321;50.428;8.378;2022-12-24T12:14:33;12.20;99.90
64855;DHT22;51321;50.428;8.378;2022-12-24T12:17:01;12.10;99.90
64855;DHT22;51321;50.428;8.378;2022-12-24T12:19:25;12.10;99.90
64855;DHT22;51321;50.428;8.378;2022-12-24T12:21:49;12.30;99.90
64855;DHT22;51321;50.428;8.378;2022-12-24T12:24:15;12.30;99.90
64855;DHT22;51321;50.428;8.378;2022-12-24T12:26:40;12.20;99.90
64855;DHT22;51321;50.428;8.378;2022-12-24T12:29:13;12.20;99.90
64855;DHT22;51321;50.428;8.378;2022-12-24T12:31:45;12.10;99.90
64855;DHT22;51321;50.428;8.378;2022-12-24T12:34:11;12.10;99.90
64855;DHT22;51321;50.428;8.378;2022-12-24T12:36:39;12.10;99.90
64855;DHT22;51321;50.428;8.378;2022-12-24T12:39:04;12.10;99.90
64855;DHT22;51321;50.428;8.378;2022-12-24T12:41:38;12.20;99.90
64855;DHT22;51321;50.428;8.378;2022-12-24T12:44:33;12.30;99.90
64855;DHT22;51321;50.428;8.378;2022-12-24T12:47:19;12.20;99.90
64855;DHT22;51321;50.428;8.378;2022-12-24T12:49:50;12.20;99.90
64855;DHT22;51321;50.428;8.378;2022-12-24T12:52:25;12.20;99.90
64855;DHT22;51321;50.428;8.378;2022-12-24T12:55:03;12.20;99.90
64855;DHT22;51321;50.428;8.378;2022-12-24T12:57:31;12.20;99.90
64855;DHT22;51321;50.428;8.378;2022-12-24T12:59:59;12.30;99.90
64855;DHT22;51321;50.428;8.378;2022-12-24T13:02:43;12.30;99.90
64855;DHT22;51321;50.428;8.378;2022-12-24T13:05:42;12.30;99.90
64855;DHT22;51321;50.428;8.378;2022-12-24T13:08:32;12.30;99.90
64855;DHT22;51321;50.428;8.378;2022-12-24T13:11:15;12.40;99.90
64855;DHT22;51321;50.428;8.378;2022-12-24T13:14:10;12.30;99.90
64855;DHT22;51321;50.428;8.378;2022-12-24T13:22:26;12.20;99.90
64855;DHT22;51321;50.428;8.378;2022-12-24T13:24:48;12.20;99.90
64855;DHT22;51321;50.428;8.378;2022-12-24T13:27:15;12.20;99.90
64855;DHT22;51321;50.428;8.378;2022-12-24T13:29:44;12.10;99.90
64855;DHT22;51321;50.428;8.378;2022-12-24T13:32:38;12.10;99.90
64855;DHT22;51321;50.428;8.378;2022-12-24T13:35:03;12.00;99.90
64855;DHT22;51321;50.428;8.378;2022-12-24T13:37:46;12.00;99.90
64855;DHT22;51321;50.428;8.378;2022-12-24T13:40:21;12.00;99.90
64855;DHT22;51321;50.428;8.378;2022-12-24T13:42:54;11.90;99.90
64855;DHT22;51321;50.428;8.378;2022-12-24T13:45:46;11.80;99.90
64855;DHT22;51321;50.428;8.378;2022-12-24T13:48:27;11.90;99.90
64855;DHT22;51321;50.428;8.378;2022-12-24T13:50:52;11.80;99.90
64855;DHT22;51321;50.428;8.378;2022-12-24T13:53:21;11.70;99.90
64855;DHT22;51321;50.428;8.378;2022-12-24T13:55:49;11.70;99.90
64855;DHT22;51321;50.428;8.378;2022-12-24T13:58:16;11.70;99.90
64855;DHT22;51321;50.428;8.378;2022-12-24T14:00:41;11.70;99.90
64855;DHT22;51321;50.428;8.378;2022-12-24T14:03:15;11.70;99.90
64855;DHT22;51321;50.428;8.378;2022-12-24T14:05:45;11.60;99.90
64855;DHT22;51321;50.428;8.378;2022-12-24T14:08:12;11.60;99.90
64855;DHT22;51321;50.428;8.378;2022-12-24T14:10:38;11.60;99.90
64855;DHT22;51321;50.428;8.378;2022-12-24T14:13:01;11.60;99.90
64855;DHT22;51321;50.428;8.378;2022-12-24T14:18:25;11.40;99.90
64855;DHT22;51321;50.428;8.378;2022-12-24T14:20:48;11.30;99.90
64855;DHT22;51321;50.428;8.378;2022-12-24T14:23:30;11.30;99.90
64855;DHT22;51321;50.428;8.378;2022-12-24T14:25:53;11.20;99.90
64855;DHT22;51321;50.428;8.378;2022-12-24T14:28:18;11.20;99.90
64855;DHT22;51321;50.428;8.378;2022-12-24T14:30:44;11.20;99.90
64855;DHT22;51321;50.428;8.378;2022-12-24T14:33:27;11.20;99.90
64855;DHT22;51321;50.428;8.378;2022-12-24T14:35:49;11.30;99.90
64855;DHT22;51321;50.428;8.378;2022-12-24T14:38:15;11.30;99.90
64855;DHT22;51321;50.428;8.378;2022-12-24T14:40:51;11.30;99.90
64855;DHT22;51321;50.428;8.378;2022-12-24T14:43:22;11.30;99.90
64855;DHT22;51321;50.428;8.378;2022-12-24T14:45:52;11.20;99.90
64855;DHT22;51321;50.428;8.378;2022-12-24T14:48:23;11.20;99.90
64855;DHT22;51321;50.428;8.378;2022-12-24T14:50:56;11.10;99.90
64855;DHT22;51321;50.428;8.378;2022-12-24T14:53:31;11.10;99.90
64855;DHT22;51321;50.428;8.378;2022-12-24T14:55:56;10.90;99.90
64855;DHT22;51321;50.428;8.378;2022-12-24T14:58:25;10.80;99.90
64855;DHT22;51321;50.428;8.378;2022-12-24T15:00:47;10.50;99.90
64855;DHT22;51321;50.428;8.378;2022-12-24T15:03:12;10.30;99.90
64855;DHT22;51321;50.428;8.378;2022-12-24T15:05:35;10.30;99.90
64855;DHT22;51321;50.428;8.378;2022-12-24T15:07:58;10.30;99.90
64855;DHT22;51321;50.428;8.378;2022-12-24T15:10:26;9.90;99.90
64855;DHT22;51321;50.428;8.378;2022-12-24T15:12:49;9.70;99.90
64855;DHT22;51321;50.428;8.378;2022-12-24T15:15:14;9.50;99.90
64855;DHT22;51321;50.428;8.378;2022-12-24T15:17:37;9.30;99.90
64855;DHT22;51321;50.428;8.378;2022-12-24T15:19:59;9.20;99.90
64855;DHT22;51321;50.428;8.378;2022-12-24T15:22:24;9.20;99.90
64855;DHT22;51321;50.428;8.378;2022-12-24T15:24:46;9.10;99.90
64855;DHT22;51321;50.428;8.378;2022-12-24T15:27:14;9.10;99.90
64855;DHT22;51321;50.428;8.378;2022-12-24T15:29:42;9.00;99.90
64855;DHT22;51321;50.428;8.378;2022-12-24T15:32:04;9.00;99.90
64855;DHT22;51321;50.428;8.378;2022-12-24T15:34:27;8.90;99.90
64855;DHT22;51321;50.428;8.378;2022-12-24T15:36:51;8.90;99.90
64855;DHT22;51321;50.428;8.378;2022-12-24T15:39:15;8.90;99.90
64855;DHT22;51321;50.428;8.378;2022-12-24T15:41:39;8.80;99.90